Time;durP1;ratioP1;P1;durP2;ratioP2;P2;SDS_P1;SDS_P2;PMS_P1;PMS_P2;Temp;Humidity;BMP_temperature;BMP_pressure;BME280_temperature;BME280_humidity;BME280_pressure;Samples;Min_cycle;Max_cycle;Signal;HPM_P1;HPM_P2
2022/12/21 00:01:20;;;;;;;1999.90;999.90;;;;;;;10.38;100.00;98976.13;8228160;28;20694;-73
2022/12/21 00:05:22;;;;;;;1999.90;999.90;;;;;;;10.40;100.00;98978.69;8247468;28;20483;-72
2022/12/21 00:09:23;;;;;;;1999.90;999.90;;;;;;;10.42;100.00;98984.75;8224593;28;20077;-73
2022/12/21 00:13:25;;;;;;;1999.90;999.90;;;;;;;10.40;100.00;98981.28;8230395;28;20042;-76
2022/12/21 00:17:26;;;;;;;1999.90;999.90;;;;;;;10.42;100.00;98974.38;8246672;28;20050;-74
2022/12/21 00:21:31;;;;;;;1999.90;999.90;;;;;;;10.39;100.00;98976.97;8249713;28;20046;-72
2022/12/21 00:25:34;;;;;;;1999.90;999.90;;;;;;;10.41;100.00;98976.13;8249421;28;20046;-72
2022/12/21 00:29:35;;;;;;;1999.90;999.90;;;;;;;10.44;100.00;98983.00;8223462;28;20671;-73
2022/12/21 00:33:38;;;;;;;1999.90;999.90;;;;;;;10.46;100.00;98976.91;8685902;23;20176;-72
2022/12/21 00:37:40;;;;;;;1999.90;999.90;;;;;;;10.43;100.00;98979.56;8280003;28;20034;-72
2022/12/21 00:41:42;;;;;;;1999.90;999.90;;;;;;;10.40;100.00;98973.50;8282737;28;20566;-73
2022/12/21 00:45:43;;;;;;;1999.90;999.90;;;;;;;10.42;100.00;98966.59;8275502;28;20049;-72
2022/12/21 00:49:44;;;;;;;1999.90;999.90;;;;;;;10.45;100.00;98976.94;8291082;28;20049;-74
2022/12/21 00:53:46;;;;;;;1999.90;999.90;;;;;;;10.46;100.00;98981.25;8283309;28;20056;-74
2022/12/21 00:57:48;;;;;;;1999.90;999.90;;;;;;;10.43;100.00;98976.97;8281595;28;20041;-73
2022/12/21 01:01:49;;;;;;;1999.90;999.90;;;;;;;10.44;100.00;98970.03;8296319;28;20052;-74
2022/12/21 01:05:52;;;;;;;1999.90;999.90;;;;;;;10.44;100.00;98967.44;8304403;28;20053;-74
2022/12/21 01:09:55;;;;;;;1999.90;999.90;;;;;;;10.45;100.00;98966.56;8296534;28;20058;-74
2022/12/21 01:13:56;;;;;;;1999.90;999.90;;;;;;;10.45;100.00;98962.22;8297337;28;20052;-73
2022/12/21 01:17:58;;;;;;;1999.90;999.90;;;;;;;10.44;100.00;98973.47;8285589;28;20107;-73
2022/12/21 01:21:59;;;;;;;1999.90;999.90;;;;;;;10.47;100.00;98981.22;8276994;28;20040;-73
2022/12/21 01:26:01;;;;;;;1999.90;999.90;;;;;;;10.46;100.00;98978.66;8288549;28;20041;-77
2022/12/21 01:30:03;;;;;;;1999.90;999.90;;;;;;;10.46;100.00;98986.44;8280763;28;20549;-75
2022/12/21 01:34:05;;;;;;;1999.90;999.90;;;;;;;10.44;100.00;98991.66;8305510;28;20140;-73
2022/12/21 01:38:07;;;;;;;1999.90;999.90;;;;;;;10.47;100.00;98994.22;8278857;28;20128;-74
2022/12/21 01:42:12;;;;;;;1999.90;999.90;;;;;;;10.46;100.00;98992.50;8292005;28;20055;-74
2022/12/21 01:46:32;;;;;;;1999.90;999.90;;;;;;;10.45;100.00;98993.38;8291908;28;20766;-75
2022/12/21 01:50:49;;;;;;;1999.90;999.90;;;;;;;10.48;100.00;98997.66;8333786;28;20045;-74
2022/12/21 01:55:02;;;;;;;1999.90;999.90;;;;;;;10.47;100.00;99001.13;8335184;28;20124;-74
2022/12/21 01:59:12;;;;;;;1999.90;999.90;;;;;;;10.42;100.00;98992.56;8317495;28;20069;-74
2022/12/21 02:03:19;;;;;;;1999.90;999.90;;;;;;;10.42;100.00;98995.16;8313635;28;20053;-74
2022/12/21 02:07:22;;;;;;;1999.90;999.90;;;;;;;10.42;100.00;98996.00;8330423;28;20053;-73
2022/12/21 02:11:23;;;;;;;1999.90;999.90;;;;;;;10.44;100.00;98993.38;8322171;28;20037;-74
2022/12/21 02:15:44;;;;;;;1999.90;999.90;;;;;;;10.42;100.00;98988.22;8299454;28;20046;-74
2022/12/21 02:20:04;;;;;;;1999.90;999.90;;;;;;;10.43;100.00;98989.06;8338131;28;20320;-74
2022/12/21 02:24:21;;;;;;;1999.90;999.90;;;;;;;10.44;100.00;98983.00;8338659;28;20069;-76
2022/12/21 02:28:45;;;;;;;1999.90;999.90;;;;;;;10.46;100.00;98986.44;8325253;28;20055;-76
2022/12/21 02:33:17;;;;;;;1999.90;999.90;;;;;;;10.46;100.00;98981.25;8332966;28;20381;-74
2022/12/21 02:37:25;;;;;;;1999.90;999.90;;;;;;;10.44;100.00;98977.81;8339429;28;20036;-73
2022/12/21 02:41:31;;;;;;;1999.90;999.90;;;;;;;10.46;100.00;98987.31;8341347;28;20042;-73
2022/12/21 02:45:59;;;;;;;1999.90;999.90;;;;;;;10.45;100.00;98975.19;8314481;28;20052;-74
2022/12/21 02:50:12;;;;;;;1999.90;999.90;;;;;;;10.47;100.00;98986.44;8337316;28;20052;-73
2022/12/21 02:54:16;;;;;;;1999.90;999.90;;;;;;;10.47;100.00;98978.63;8338292;28;20037;-74
2022/12/21 02:58:22;;;;;;;1999.90;999.90;;;;;;;10.46;100.00;98982.13;8316397;28;20041;-74
2022/12/21 03:02:44;;;;;;;1999.90;999.90;;;;;;;10.42;100.00;98983.03;8333514;28;20140;-73
2022/12/21 03:07:12;;;;;;;1999.90;999.90;;;;;;;10.41;100.00;98981.31;8329633;28;20053;-73
2022/12/21 03:11:14;;;;;;;1999.90;999.90;;;;;;;10.41;100.00;98983.91;8339707;28;20132;-73
2022/12/21 03:15:50;;;;;;;1999.90;999.90;;;;;;;10.40;100.00;98974.38;8340452;28;20053;-74
2022/12/21 03:20:05;;;;;;;1999.90;999.90;;;;;;;10.44;100.00;98976.09;8343635;28;20059;-73
2022/12/21 03:24:16;;;;;;;1999.90;999.90;;;;;;;10.41;100.00;98978.72;8342376;28;20044;-74
2022/12/21 03:28:24;;;;;;;1999.90;999.90;;;;;;;10.44;100.00;98973.47;8328744;28;20051;-75
2022/12/21 03:32:37;;;;;;;1999.90;999.90;;;;;;;10.44;100.00;98978.69;8343031;28;20047;-74
2022/12/21 03:36:46;;;;;;;1999.90;999.90;;;;;;;10.41;100.00;98968.34;8347326;28;20080;-75
2022/12/21 03:40:53;;;;;;;1999.90;999.90;;;;;;;10.44;100.00;98977.81;8310942;28;20054;-73
2022/12/21 03:45:09;;;;;;;1999.90;999.90;;;;;;;10.42;100.00;98967.44;8321694;28;20056;-73
2022/12/21 03:49:28;;;;;;;1999.90;999.90;;;;;;;10.41;100.00;98957.06;8329637;28;21357;-73
2022/12/21 03:53:40;;;;;;;1999.90;999.90;;;;;;;10.41;100.00;98955.34;8326510;28;20040;-74
2022/12/21 03:57:43;;;;;;;1999.90;999.90;;;;;;;10.41;100.00;98955.34;8339894;28;20124;-73
2022/12/21 04:01:53;;;;;;;1999.90;999.90;;;;;;;10.41;100.00;98946.69;8344872;28;20072;-75
2022/12/21 04:06:16;;;;;;;1999.90;999.90;;;;;;;10.38;100.00;98944.13;8337416;28;20037;-73
2022/12/21 04:10:19;;;;;;;;;;;;;;;10.42;100.00;98949.28;8323380;28;20055;-72
2022/12/21 04:14:21;;;;;;;1999.90;999.90;;;;;;;10.40;100.00;98950.16;8319110;28;19925;-73
2022/12/21 04:31:24;;;;;;;1999.90;999.90;;;;;;;10.42;100.00;98940.66;8310341;28;20427;-73
2022/12/21 04:35:26;;;;;;;1999.90;999.90;;;;;;;10.42;100.00;98940.66;8341217;28;20053;-72
2022/12/21 04:39:27;;;;;;;1999.90;999.90;;;;;;;10.42;100.00;98941.50;8338696;28;20045;-74
2022/12/21 04:43:28;;;;;;;1999.90;999.90;;;;;;;10.46;100.00;98942.31;8320875;28;20477;-72
2022/12/21 04:47:30;;;;;;;1999.90;999.90;;;;;;;10.42;100.00;98944.09;8318309;28;20837;-74
2022/12/21 04:51:31;;;;;;;1999.90;999.90;;;;;;;10.44;100.00;98942.34;8326392;28;20053;-73
2022/12/21 04:55:32;;;;;;;1999.90;999.90;;;;;;;10.41;100.00;98938.88;8334853;28;20051;-72
2022/12/21 04:59:34;;;;;;;1999.90;999.90;;;;;;;10.42;100.00;98930.25;8324381;28;20041;-72
2022/12/21 05:03:35;;;;;;;1999.90;999.90;;;;;;;10.41;100.00;98925.91;8308746;28;20453;-72
2022/12/21 05:07:37;;;;;;;1999.90;999.90;;;;;;;10.42;100.00;98922.47;8340818;28;20048;-72
2022/12/21 05:11:39;;;;;;;1999.90;999.90;;;;;;;10.44;100.00;98926.75;8320094;28;20037;-73
2022/12/21 05:15:40;;;;;;;1999.90;999.90;;;;;;;10.45;100.00;98919.84;8327692;28;20137;-74
2022/12/21 05:19:41;;;;;;;1999.90;999.90;;;;;;;10.45;100.00;98932.81;8332666;28;20370;-72
2022/12/21 05:23:43;;;;;;;1999.90;999.90;;;;;;;10.45;100.00;98931.06;8316024;28;20569;-74
2022/12/21 05:27:44;;;;;;;1999.90;999.90;;;;;;;10.45;100.00;98938.00;8337366;28;20049;-72
2022/12/21 05:31:45;;;;;;;1999.90;999.90;;;;;;;10.45;100.00;98935.41;8309786;28;20069;-73
2022/12/21 05:35:48;;;;;;;1999.90;999.90;;;;;;;10.46;100.00;98934.53;8339719;28;20064;-74
2022/12/21 05:39:49;;;;;;;1999.90;999.90;;;;;;;10.45;100.00;98941.47;8323297;28;20449;-74
2022/12/21 05:43:51;;;;;;;1999.90;999.90;;;;;;;10.47;100.00;98931.06;8329496;28;20033;-73
2022/12/21 05:47:54;;;;;;;1999.90;999.90;;;;;;;10.44;100.00;98937.16;8338569;28;20586;-73
2022/12/21 05:51:55;;;;;;;1999.90;999.90;;;;;;;10.45;100.00;98933.66;8317881;28;20045;-73
2022/12/21 05:55:56;;;;;;;1999.90;999.90;;;;;;;10.44;100.00;98931.09;8341589;28;20045;-73
2022/12/21 05:59:58;;;;;;;1999.90;999.90;;;;;;;10.41;100.00;98932.00;8322812;28;20116;-73
2022/12/21 06:03:59;;;;;;;1999.90;999.90;;;;;;;10.40;100.00;98938.03;8320739;28;20464;-74
2022/12/21 06:08:01;;;;;;;1999.90;999.90;;;;;;;10.44;100.00;98941.47;8343663;28;20044;-73
2022/12/21 06:12:02;;;;;;;1999.90;999.90;;;;;;;10.45;100.00;98943.19;8324129;28;20396;-74
2022/12/21 06:16:09;;;;;;;1999.90;999.90;;;;;;;10.45;100.00;98938.88;8341023;28;20056;-72
2022/12/21 06:20:11;;;;;;;1999.90;999.90;;;;;;;10.46;100.00;98932.78;8314775;28;20049;-75
2022/12/21 06:24:13;;;;;;;1999.90;999.90;;;;;;;10.47;100.00;98942.31;8323203;28;20473;-73
2022/12/21 06:28:14;;;;;;;1999.90;999.90;;;;;;;10.48;100.00;98956.13;8324811;28;20047;-74
2022/12/21 06:32:16;;;;;;;1999.90;999.90;;;;;;;10.49;100.00;98953.53;8331771;28;20045;-73
2022/12/21 06:36:17;;;;;;;1999.90;999.90;;;;;;;10.47;100.00;98951.81;8321426;28;20470;-74
2022/12/21 06:40:19;;;;;;;1999.90;999.90;;;;;;;10.48;100.00;98949.22;8317073;28;20053;-74
2022/12/21 06:44:20;;;;;;;1999.90;999.90;;;;;;;10.49;100.00;98953.53;8339435;28;20421;-75
2022/12/21 06:48:23;;;;;;;1999.90;999.90;;;;;;;10.50;100.00;98959.56;8319865;28;20060;-76
2022/12/21 06:52:24;;;;;;;1999.90;999.90;;;;;;;10.51;100.00;98961.28;8336419;28;20449;-74
2022/12/21 06:56:30;;;;;;;1999.90;999.90;;;;;;;10.53;100.00;98964.72;8321695;28;20063;-73
2022/12/21 07:00:31;;;;;;;1999.90;999.90;;;;;;;10.52;100.00;98961.28;8333150;28;20076;-76
2022/12/21 07:04:32;;;;;;;1999.90;999.90;;;;;;;10.53;100.00;98965.59;8335497;28;20041;-77
2022/12/21 07:08:34;;;;;;;1999.90;999.90;;;;;;;10.49;100.00;98956.13;8315340;28;20048;-75
2022/12/21 07:12:35;;;;;;;1999.90;999.90;;;;;;;10.51;100.00;98958.69;8344420;28;20048;-74
2022/12/21 07:16:37;;;;;;;1999.90;999.90;;;;;;;10.53;100.00;98963.00;8330935;28;20056;-76
2022/12/21 07:20:38;;;;;;;1999.90;999.90;;;;;;;10.51;100.00;98964.75;8322354;28;20490;-75
2022/12/21 07:24:40;;;;;;;1999.90;999.90;;;;;;;10.54;100.00;98964.69;8318746;28;20213;-77
2022/12/21 07:28:43;;;;;;;1999.90;999.90;;;;;;;10.55;100.00;98971.63;8319532;28;20049;-76
2022/12/21 07:32:45;;;;;;;1999.90;999.90;;;;;;;10.54;100.00;98975.09;8311070;28;20348;-74
2022/12/21 07:36:46;;;;;;;1999.90;999.90;;;;;;;10.52;100.00;98975.97;8313542;28;20057;-74
2022/12/21 07:40:48;;;;;;;1999.90;999.90;;;;;;;10.54;100.00;98962.09;8310673;28;20045;-75
2022/12/21 07:44:49;;;;;;;1999.90;999.90;;;;;;;10.58;100.00;98973.31;8322251;28;20120;-75
2022/12/21 07:48:52;;;;;;;1999.90;999.90;;;;;;;10.58;100.00;98975.91;8332140;28;20095;-75
2022/12/21 07:52:53;;;;;;;;;;;;;;;10.58;100.00;98981.09;8316011;28;20468;-73
2022/12/21 07:56:54;;;;;;;1999.90;999.90;;;;;;;10.61;100.00;98985.44;8333833;28;19929;-74
2022/12/21 08:01:06;;;;;;;1999.90;999.90;;;;;;;10.59;100.00;98999.28;8322075;28;20067;-75
2022/12/21 08:05:08;;;;;;;1999.90;999.90;;;;;;;10.62;100.00;98992.34;8318052;28;20052;-73
2022/12/21 08:09:09;;;;;;;1999.90;999.90;;;;;;;10.61;100.00;98998.41;8334309;28;20557;-73
2022/12/21 08:13:11;;;;;;;1999.90;999.90;;;;;;;10.62;100.00;98997.53;8312504;28;20041;-75
2022/12/21 08:17:12;;;;;;;1999.90;999.90;;;;;;;10.64;100.00;99006.16;8333485;28;20049;-74
2022/12/21 08:21:15;;;;;;;1999.90;999.90;;;;;;;10.66;100.00;99000.06;8302932;28;20047;-74
2022/12/21 08:25:17;;;;;;;1999.90;999.90;;;;;;;10.68;100.00;99008.69;8330421;28;20068;-76
2022/12/21 08:29:18;;;;;;;1999.90;999.90;;;;;;;10.67;100.00;99009.56;8327742;28;20049;-77
2022/12/21 08:33:20;;;;;;;1999.90;999.90;;;;;;;10.66;100.00;99018.25;8328932;28;20049;-74
2022/12/21 08:37:22;;;;;;;1999.90;999.90;;;;;;;10.65;100.00;99016.53;8316424;28;20037;-73
2022/12/21 08:41:24;;;;;;;1999.90;999.90;;;;;;;10.65;100.00;99023.44;8329094;28;20055;-74
2022/12/21 08:45:25;;;;;;;1999.90;999.90;;;;;;;10.62;100.00;99033.88;8300959;28;20033;-75
2022/12/21 08:49:27;;;;;;;1999.90;999.90;;;;;;;10.63;100.00;99028.66;8334625;28;20377;-74
2022/12/21 08:53:29;;;;;;;1999.90;999.90;;;;;;;10.65;100.00;99031.25;8328942;28;20079;-74
2022/12/21 08:57:30;;;;;;;1999.90;999.90;;;;;;;10.66;100.00;99035.56;8336254;28;20102;-74
2022/12/21 09:01:32;;;;;;;1999.90;999.90;;;;;;;10.70;100.00;99039.84;8331441;28;20073;-74
2022/12/21 09:05:34;;;;;;;1999.90;999.90;;;;;;;10.72;100.00;99038.94;8337064;28;20037;-77
2022/12/21 09:09:36;;;;;;;1999.90;999.90;;;;;;;10.75;100.00;99035.44;8307221;28;20049;-76
2022/12/21 09:13:38;;;;;;;1999.90;999.90;;;;;;;10.75;100.00;99045.81;8315387;28;20369;-73
2022/12/21 09:17:39;;;;;;;1999.90;999.90;;;;;;;10.73;100.00;99043.25;8319083;28;20136;-75
2022/12/21 09:21:41;;;;;;;1999.90;999.90;;;;;;;10.75;100.00;99049.28;8304880;28;20053;-74
2022/12/21 09:25:42;;;;;;;1999.90;999.90;;;;;;;10.78;100.00;99044.09;8337484;28;20605;-73
2022/12/21 09:29:44;;;;;;;1999.90;999.90;;;;;;;10.82;100.00;99047.50;8316613;28;20042;-72
2022/12/21 09:33:46;;;;;;;1999.90;999.90;;;;;;;10.87;100.00;99051.75;8306824;28;20689;-72
2022/12/21 09:37:48;;;;;;;1999.90;999.90;;;;;;;10.89;100.00;99060.38;8316196;28;20045;-75
2022/12/21 09:42:22;;;;;;;1999.90;999.90;;;;;;;10.94;100.00;99059.47;8309144;28;20631;-72
2022/12/21 09:46:26;;;;;;;1999.90;999.90;;;;;;;10.92;100.00;99079.41;8311177;28;20053;-76
2022/12/21 09:50:41;;;;;;;1999.90;999.90;;;;;;;10.99;100.00;99083.69;8336926;28;20124;-73
2022/12/21 09:54:54;;;;;;;1999.90;999.90;;;;;;;10.99;100.00;99084.53;8319213;28;20049;-75
2022/12/21 09:59:01;;;;;;;1999.90;999.90;;;;;;;10.99;100.00;99081.94;8331648;28;20033;-74
2022/12/21 10:03:31;;;;;;;1999.90;999.90;;;;;;;11.05;100.00;99092.25;8314469;28;20132;-74
2022/12/21 10:08:09;;;;;;;1999.90;999.90;;;;;;;11.11;100.00;99093.91;8331257;28;20103;-75
2022/12/21 10:12:17;;;;;;;1999.90;999.90;;;;;;;11.13;100.00;99097.34;8334061;28;20866;-73
2022/12/21 10:16:36;;;;;;;1999.90;999.90;;;;;;;11.05;100.00;99092.25;8333239;28;20294;-73
2022/12/21 10:21:34;;;;;;;1999.90;999.90;;;;;;;11.01;100.00;99090.56;8326318;28;20049;-75
2022/12/21 10:25:49;;;;;;;1999.90;999.90;;;;;;;11.07;100.00;99090.50;8285585;28;20054;-74
2022/12/21 10:29:56;;;;;;;1999.90;999.90;;;;;;;11.19;100.00;99076.50;8327280;28;20064;-74
2022/12/21 10:34:00;;;;;;;1999.90;999.90;;;;;;;11.35;100.00;99085.84;8319613;28;20045;-75
2022/12/21 10:38:09;;;;;;;1999.90;999.90;;;;;;;11.56;100.00;99082.09;8341151;28;20077;-75
2022/12/21 10:42:22;;;;;;;1999.90;999.90;;;;;;;11.64;100.00;99080.25;8344304;28;20083;-76
2022/12/21 10:46:30;;;;;;;1999.90;999.90;;;;;;;11.70;100.00;99076.72;8327617;28;20060;-76
2022/12/21 10:50:36;;;;;;;1999.90;999.90;;;;;;;11.85;100.00;99078.25;8322674;28;20041;-76
2022/12/21 10:54:48;;;;;;;1999.90;999.90;;;;;;;11.93;100.00;99072.06;8337147;28;20125;-76
2022/12/21 10:58:52;;;;;;;1999.90;999.90;;;;;;;12.17;100.00;99065.63;8329747;28;20500;-77
2022/12/21 11:02:57;;;;;;;1999.90;999.90;;;;;;;12.16;100.00;99061.28;8316062;28;20462;-76
2022/12/21 11:07:04;;;;;;;1999.90;999.90;;;;;;;12.20;99.68;99055.16;8334245;28;20068;-76
2022/12/21 11:11:26;;;;;;;1999.90;999.90;;;;;;;12.22;97.42;99042.16;8340206;28;20045;-75
2022/12/21 11:15:28;;;;;;;1999.90;999.90;;;;;;;12.17;97.65;99039.59;8334697;28;20044;-77
2022/12/21 11:19:58;;;;;;;1999.90;999.90;;;;;;;12.01;96.93;99033.78;8333490;28;20037;-76
2022/12/21 11:24:10;;;;;;;1999.90;999.90;;;;;;;11.92;96.50;99036.53;8316388;28;20040;-76
2022/12/21 11:28:18;;;;;;;1999.90;999.90;;;;;;;11.82;96.94;99039.28;8342138;28;20076;-76
2022/12/21 11:32:21;;;;;;;1999.90;999.90;;;;;;;11.78;97.63;99049.75;8312159;28;20129;-75
2022/12/21 11:36:22;;;;;;;1999.90;999.90;;;;;;;11.76;97.00;99045.41;8299780;28;20088;-77
2022/12/21 11:40:26;;;;;;;1999.90;999.90;;;;;;;11.75;97.24;99038.50;8308314;28;20088;-76
2022/12/21 11:44:31;;;;;;;1999.90;999.90;;;;;;;11.74;97.65;99028.97;8321263;28;20075;-76
2022/12/21 11:48:56;;;;;;;1999.90;999.90;;;;;;;11.71;97.56;99022.09;8336779;28;20057;-75
2022/12/21 11:53:33;;;;;;;1999.90;999.90;;;;;;;11.63;97.05;99013.53;8320448;28;20136;-76
2022/12/21 11:57:40;;;;;;;1999.90;999.90;;;;;;;11.67;97.43;99003.91;8344654;28;20056;-76
2022/12/21 12:01:42;;;;;;;1999.90;999.90;;;;;;;11.67;96.92;99006.53;8324891;28;20041;-77
2022/12/21 12:06:11;;;;;;;1999.90;999.90;;;;;;;11.66;96.74;99013.47;8339681;28;20044;-79
2022/12/21 12:10:33;;;;;;;1999.90;999.90;;;;;;;11.62;96.58;99011.81;8322258;28;20049;-77
2022/12/21 12:14:44;;;;;;;1999.90;999.90;;;;;;;11.60;95.92;99000.56;8317302;28;20135;-76
2022/12/21 12:19:02;;;;;;;1999.90;999.90;;;;;;;11.53;93.95;99011.09;8315620;28;20481;-76
2022/12/21 12:23:18;;;;;;;1999.90;999.90;;;;;;;11.42;93.12;99013.84;8332739;28;20136;-76
2022/12/21 12:27:38;;;;;;;1999.90;999.90;;;;;;;11.38;92.80;99005.22;8325187;28;20784;-75
2022/12/21 12:32:05;;;;;;;1999.90;999.90;;;;;;;11.38;93.11;99015.63;8335871;28;20137;-78
2022/12/21 12:36:13;;;;;;;1999.90;999.90;;;;;;;11.43;93.48;99016.41;8317162;28;20053;-79
2022/12/21 12:40:52;;;;;;;1999.90;999.90;;;;;;;11.45;93.65;99021.59;8290307;28;20059;-78
2022/12/21 12:45:32;;;;;;;1999.90;999.90;;;;;;;11.39;93.29;99022.53;8290629;28;20045;-76
2022/12/21 12:49:56;;;;;;;1999.90;999.90;;;;;;;11.46;93.70;99018.09;8269612;28;20107;-77
2022/12/21 12:54:16;;;;;;;1999.90;999.90;;;;;;;11.40;93.36;99015.59;8269258;28;20120;-77
2022/12/21 12:58:26;;;;;;;1999.90;999.90;;;;;;;11.38;92.94;99010.41;8295654;28;20057;-77
2022/12/21 13:02:43;;;;;;;1999.90;999.90;;;;;;;11.38;93.21;99005.22;8291703;28;20142;-77
2022/12/21 13:07:00;;;;;;;1999.90;999.90;;;;;;;11.46;94.08;99002.50;8308395;28;20060;-76
2022/12/21 13:11:23;;;;;;;1999.90;999.90;;;;;;;11.54;93.13;99010.22;8300506;28;20046;-77
2022/12/21 13:15:38;;;;;;;1999.90;999.90;;;;;;;11.54;93.05;99024.06;8284469;28;20061;-76
2022/12/21 13:19:42;;;;;;;1999.90;999.90;;;;;;;11.44;92.30;99004.25;8304140;28;20132;-76
2022/12/21 13:23:59;;;;;;;1999.90;999.90;;;;;;;11.37;91.65;99023.44;8290042;28;20041;-78
2022/12/21 13:28:02;;;;;;;1999.90;999.90;;;;;;;11.30;91.60;99014.84;8285130;28;20128;-77
2022/12/21 13:32:13;;;;;;;1999.90;999.90;;;;;;;11.24;92.18;99012.34;8285836;28;20062;-77
2022/12/21 13:36:18;;;;;;;1999.90;999.90;;;;;;;11.16;92.20;99022.84;8312118;28;20057;-78
2022/12/21 13:40:35;;;;;;;1999.90;999.90;;;;;;;11.11;92.52;99019.44;8341797;28;20060;-77
2022/12/21 13:44:45;;;;;;;1999.90;999.90;;;;;;;11.11;93.56;99013.38;8338518;28;20055;-77
2022/12/21 13:48:52;;;;;;;1999.90;999.90;;;;;;;11.12;93.11;99021.16;8325837;28;20080;-78
2022/12/21 13:53:34;;;;;;;1999.90;999.90;;;;;;;11.13;92.58;99020.28;8335800;28;20041;-78
2022/12/21 13:57:40;;;;;;;1999.90;999.90;;;;;;;11.14;92.18;99021.16;8312469;28;20053;-76
2022/12/21 14:02:01;;;;;;;1999.90;999.90;;;;;;;11.16;92.64;99024.59;8317901;28;20061;-78
2022/12/21 14:06:25;;;;;;;1999.90;999.90;;;;;;;11.06;90.87;99039.41;8339830;28;20416;-78
2022/12/21 14:10:57;;;;;;;1999.90;999.90;;;;;;;11.00;90.43;99046.44;8338413;28;20045;-79
2022/12/21 14:15:36;;;;;;;1999.90;999.90;;;;;;;10.91;90.13;99037.00;8323625;28;20470;-80
2022/12/21 14:19:37;;;;;;;1999.90;999.90;;;;;;;10.88;89.27;99039.63;8343726;28;20073;-78
2022/12/21 14:23:51;;;;;;;1999.90;999.90;;;;;;;10.88;90.19;99030.09;8339551;28;20136;-77
2022/12/21 14:28:21;;;;;;;1999.90;999.90;;;;;;;10.81;90.76;99030.19;8338114;28;20045;-78
2022/12/21 14:32:23;;;;;;;1999.90;999.90;;;;;;;10.77;90.97;99028.50;8305621;28;20125;-77
2022/12/21 14:36:31;;;;;;;1999.90;999.90;;;;;;;10.70;91.20;99027.72;8333596;28;20043;-78
2022/12/21 14:40:55;;;;;;;1999.90;999.90;;;;;;;10.67;91.40;99013.91;8332225;28;20309;-77
2022/12/21 14:45:09;;;;;;;1999.90;999.90;;;;;;;10.63;90.91;99018.28;8342791;28;20120;-81
2022/12/21 14:49:26;;;;;;;1999.90;999.90;;;;;;;10.59;91.59;99017.47;8314601;28;20049;-79
2022/12/21 14:53:32;;;;;;;1999.90;999.90;;;;;;;10.57;91.70;99032.16;8332121;28;20037;-77
2022/12/21 14:57:39;;;;;;;1999.90;999.90;;;;;;;10.52;92.17;99033.94;8330428;28;20124;-77
2022/12/21 15:01:55;;;;;;;1999.90;999.90;;;;;;;10.52;92.20;99028.75;8324016;28;20083;-77
2022/12/21 15:06:04;;;;;;;1999.90;999.90;;;;;;;10.48;92.65;99014.09;8313977;28;20049;-77
2022/12/21 15:10:20;;;;;;;1999.90;999.90;;;;;;;10.45;92.84;99008.09;8328763;28;20529;-79
2022/12/21 15:14:49;;;;;;;1999.90;999.90;;;;;;;10.37;93.20;99009.88;8304864;28;20045;-77
2022/12/21 15:18:50;;;;;;;1999.90;999.90;;;;;;;10.30;93.85;98996.13;8305550;28;20137;-77
2022/12/21 15:22:52;;;;;;;1999.90;999.90;;;;;;;10.23;94.33;99008.28;8327647;28;20043;-77
2022/12/21 15:27:17;;;;;;;1999.90;999.90;;;;;;;10.11;94.41;99007.50;8327010;28;20071;-78
2022/12/21 15:31:36;;;;;;;1999.90;999.90;;;;;;;9.99;95.81;99000.69;8333926;28;20093;-77
2022/12/21 15:35:43;;;;;;;1999.90;999.90;;;;;;;9.93;96.79;99004.19;8336359;28;20053;-77
2022/12/21 15:39:46;;;;;;;1999.90;999.90;;;;;;;9.86;97.47;99012.00;8336147;28;20064;-79
2022/12/21 15:43:59;;;;;;;1999.90;999.90;;;;;;;9.83;97.60;99012.03;8338632;28;20589;-78
2022/12/21 15:48:18;;;;;;;1999.90;999.90;;;;;;;9.71;98.27;99014.75;8337301;28;20094;-79
2022/12/21 15:52:48;;;;;;;1999.90;999.90;;;;;;;9.71;99.20;99009.56;8310737;28;20080;-79
2022/12/21 15:56:53;;;;;;;1999.90;999.90;;;;;;;9.76;99.00;98987.03;8311425;28;20064;-76
2022/12/21 16:01:14;;;;;;;1999.90;999.90;;;;;;;9.77;98.73;98993.94;8332018;28;20151;-76
2022/12/21 16:05:24;;;;;;;1999.90;999.90;;;;;;;9.73;98.10;98993.13;8320001;28;20053;-76
2022/12/21 16:09:30;;;;;;;1999.90;999.90;;;;;;;9.60;98.32;98986.28;8325857;28;20059;-77
2022/12/21 16:13:39;;;;;;;1999.90;999.90;;;;;;;9.49;99.17;98988.94;8317766;28;20090;-78
2022/12/21 16:17:40;;;;;;;1999.90;999.90;;;;;;;9.37;99.61;98989.03;8301385;28;20740;-77
2022/12/21 16:21:44;;;;;;;1999.90;999.90;;;;;;;9.38;100.00;98988.16;8308217;28;20135;-77
2022/12/21 16:25:48;;;;;;;1999.90;999.90;;;;;;;9.37;100.00;98987.31;8311081;28;20025;-76
2022/12/21 16:29:54;;;;;;;1999.90;999.90;;;;;;;9.42;100.00;98984.69;8332333;28;20057;-76
2022/12/21 16:34:01;;;;;;;1999.90;999.90;;;;;;;9.41;100.00;98984.69;8313788;28;20125;-77
2022/12/21 16:38:02;;;;;;;1999.90;999.90;;;;;;;9.36;100.00;98977.81;8326029;28;20470;-77
2022/12/21 16:42:04;;;;;;;1999.90;999.90;;;;;;;9.38;100.00;98980.41;8317714;28;20055;-76
2022/12/21 16:46:07;;;;;;;1999.90;999.90;;;;;;;9.33;100.00;98967.44;8340710;28;20059;-78
2022/12/21 16:50:41;;;;;;;1999.90;999.90;;;;;;;9.33;100.00;98961.41;8302957;28;20048;-77
2022/12/21 16:54:44;;;;;;;1999.90;999.90;;;;;;;9.35;100.00;98957.97;8312680;28;20306;-77
2022/12/21 16:58:50;;;;;;;1999.90;999.90;;;;;;;9.35;100.00;98951.94;8302178;28;20136;-78
2022/12/21 17:03:01;;;;;;;1999.90;999.90;;;;;;;9.36;100.00;98953.66;8313561;28;20057;-75
2022/12/21 17:07:15;;;;;;;1999.90;999.90;;;;;;;9.37;100.00;98965.72;8328507;28;20046;-75
2022/12/21 17:11:19;;;;;;;1999.90;999.90;;;;;;;9.35;100.00;98968.31;8327079;28;20051;-75
2022/12/21 17:15:40;;;;;;;1999.90;999.90;;;;;;;9.34;100.00;98958.84;8304875;28;20535;-75
2022/12/21 17:19:54;;;;;;;1999.90;999.90;;;;;;;9.34;100.00;98945.88;8320163;28;20393;-75
2022/12/21 17:24:03;;;;;;;1999.90;999.90;;;;;;;9.35;100.00;98933.78;8303023;28;20045;-75
2022/12/21 17:28:04;;;;;;;1999.90;999.90;;;;;;;9.32;100.00;98932.06;8337245;28;20620;-75
2022/12/21 17:32:12;;;;;;;1999.90;999.90;;;;;;;9.32;100.00;98926.00;8330612;28;20509;-75
2022/12/21 17:36:17;;;;;;;1999.90;999.90;;;;;;;9.28;100.00;98930.34;8329108;28;20057;-75
2022/12/21 17:40:23;;;;;;;1999.90;999.90;;;;;;;9.33;100.00;98932.91;8307326;28;20455;-75
2022/12/21 17:44:24;;;;;;;1999.90;999.90;;;;;;;9.31;100.00;98930.34;8336984;28;20041;-75
2022/12/21 17:48:43;;;;;;;1999.90;999.90;;;;;;;9.31;100.00;98922.56;8304255;28;20857;-75
2022/12/21 17:52:45;;;;;;;1999.90;999.90;;;;;;;9.32;100.00;98931.19;8319231;28;20053;-75
2022/12/21 17:56:47;;;;;;;1999.90;999.90;;;;;;;9.33;100.00;98919.94;8321233;28;20999;-75
2022/12/21 18:00:52;;;;;;;1999.90;999.90;;;;;;;9.37;100.00;98912.16;8327705;28;20432;-74
2022/12/21 18:04:56;;;;;;;1999.90;999.90;;;;;;;9.39;100.00;98905.25;8336946;28;20068;-75
2022/12/21 18:08:57;;;;;;;1999.90;999.90;;;;;;;9.41;100.00;98897.47;8338357;28;20053;-74
2022/12/21 18:12:59;;;;;;;1999.90;999.90;;;;;;;9.42;100.00;98888.81;8317495;28;20046;-74
2022/12/21 18:17:02;;;;;;;1999.90;999.90;;;;;;;9.47;100.00;98899.13;8312830;28;20065;-74
2022/12/21 18:21:04;;;;;;;1999.90;999.90;;;;;;;9.46;100.00;98890.50;8318410;28;20136;-74
2022/12/21 18:25:12;;;;;;;1999.90;999.90;;;;;;;9.48;100.00;98891.34;8311346;28;20034;-73
2022/12/21 18:29:15;;;;;;;1999.90;999.90;;;;;;;9.50;100.00;98883.56;8322333;28;20158;-73